createdAt,value
2022-08-29T00:00:26.062Z,9.07
2022-08-29T00:03:01.619Z,10.52
2022-08-29T00:05:42.740Z,9.82
2022-08-29T00:08:19.642Z,9.93
2022-08-29T00:10:50.050Z,10.68
2022-08-29T00:13:24.764Z,10.23
2022-08-29T00:15:51.785Z,10.80
2022-08-29T00:18:21.253Z,9.98
2022-08-29T00:20:51.869Z,10.02
2022-08-29T00:23:22.700Z,10.30
2022-08-29T00:25:51.304Z,10.27
2022-08-29T00:28:21.186Z,9.48
2022-08-29T00:30:51.899Z,9.23
2022-08-29T00:33:21.599Z,10.05
2022-08-29T00:35:53.083Z,9.55
2022-08-29T00:38:43.769Z,8.90
2022-08-29T00:41:12.110Z,10.20
2022-08-29T00:43:42.191Z,9.35
2022-08-29T00:46:48.314Z,9.45
2022-08-29T00:49:42.530Z,9.35
2022-08-29T00:52:20.654Z,8.57
2022-08-29T00:54:55.164Z,8.90
2022-08-29T00:57:25.105Z,8.65
2022-08-29T00:59:54.564Z,9.32
2022-08-29T01:02:21.951Z,9.15
2022-08-29T01:04:50.490Z,9.65
2022-08-29T01:07:20.075Z,9.63
2022-08-29T01:09:50.998Z,8.95
2022-08-29T01:12:21.454Z,8.95
2022-08-29T01:14:58.710Z,8.82
2022-08-29T01:17:43.069Z,8.52
2022-08-29T01:20:38.084Z,8.77
2022-08-29T01:23:33.191Z,8.75
2022-08-29T01:26:07.099Z,8.45
2022-08-29T01:28:49.190Z,8.32
2022-08-29T01:31:37.195Z,8.88
2022-08-29T01:34:10.689Z,8.73
2022-08-29T01:36:47.534Z,9.05
2022-08-29T01:39:14.920Z,9.07
2022-08-29T01:41:42.613Z,9.20
2022-08-29T01:44:17.875Z,9.60
2022-08-29T01:46:47.154Z,10.20
2022-08-29T01:49:15.660Z,11.38
2022-08-29T01:51:43.810Z,11.18
2022-08-29T01:54:12.065Z,12.02
2022-08-29T01:56:44.306Z,12.43
2022-08-29T01:59:16.924Z,13.40
2022-08-29T02:02:02.976Z,14.05
2022-08-29T02:04:31.420Z,12.43
2022-08-29T02:06:59.889Z,13.15
2022-08-29T02:09:28.129Z,13.82
2022-08-29T02:11:58.266Z,13.73
2022-08-29T02:14:26.558Z,13.90
2022-08-29T02:16:53.730Z,13.77
2022-08-29T02:19:21.089Z,13.98
2022-08-29T02:21:48.403Z,13.18
2022-08-29T02:24:25.735Z,14.35
2022-08-29T02:26:55.523Z,15.25
2022-08-29T02:29:24.275Z,15.80
2022-08-29T02:31:51.860Z,14.18
2022-08-29T02:34:19.770Z,15.95
2022-08-29T02:36:48.152Z,13.43
2022-08-29T02:39:17.007Z,13.32
2022-08-29T02:41:44.584Z,14.57
2022-08-29T02:44:11.931Z,14.63
2022-08-29T02:46:39.234Z,14.27
2022-08-29T02:49:06.883Z,14.27
2022-08-29T02:51:34.957Z,12.95
2022-08-29T02:54:02.913Z,13.02
2022-08-29T02:56:30.737Z,13.48
2022-08-29T02:58:58.983Z,13.15
2022-08-29T03:01:28.082Z,13.77
2022-08-29T03:03:55.291Z,12.95
2022-08-29T03:06:22.684Z,13.05
2022-08-29T03:08:51.066Z,12.50
2022-08-29T03:11:21.440Z,12.55
2022-08-29T03:13:48.689Z,13.15
2022-08-29T03:16:16.476Z,13.93
2022-08-29T03:18:43.787Z,12.13
2022-08-29T03:21:20.702Z,13.07
2022-08-29T03:23:49.889Z,14.05
2022-08-29T03:26:17.720Z,13.55
2022-08-29T03:28:45.303Z,12.23
2022-08-29T03:31:13.560Z,12.73
2022-08-29T03:33:40.984Z,12.65
2022-08-29T03:36:14.423Z,13.15
2022-08-29T03:38:43.870Z,12.95
2022-08-29T03:41:11.674Z,12.75
2022-08-29T03:43:38.964Z,12.00
2022-08-29T03:46:06.229Z,11.70
2022-08-29T03:48:33.977Z,11.68
2022-08-29T03:51:01.589Z,12.27
2022-08-29T03:53:28.859Z,12.63
2022-08-29T03:55:58.066Z,13.20
2022-08-29T03:58:25.424Z,12.98
2022-08-29T04:00:52.849Z,12.73
2022-08-29T04:03:20.369Z,12.45
2022-08-29T04:05:55.321Z,12.38
2022-08-29T04:08:23.922Z,12.68
2022-08-29T04:10:51.015Z,11.50
2022-08-29T04:13:18.557Z,11.90
2022-08-29T04:15:45.680Z,9.98
2022-08-29T04:18:12.840Z,11.13
2022-08-29T04:20:45.189Z,11.65
2022-08-29T04:23:14.017Z,10.13
2022-08-29T04:25:43.376Z,9.02
2022-08-29T04:28:12.645Z,8.57
2022-08-29T04:30:40.272Z,7.50
2022-08-29T04:33:07.704Z,6.97
2022-08-29T04:35:37.414Z,6.65
2022-08-29T04:38:32.755Z,7.65
2022-08-29T04:40:59.890Z,9.50
2022-08-29T04:43:27.081Z,9.18
2022-08-29T04:45:57.847Z,7.50
2022-08-29T04:48:25.085Z,6.57
2022-08-29T04:51:01.150Z,5.43
2022-08-29T04:53:29.270Z,5.63
2022-08-29T04:55:57.635Z,6.30
2022-08-29T04:58:25.554Z,6.30
2022-08-29T05:00:57.005Z,5.75
2022-08-29T05:03:24.175Z,4.80
2022-08-29T05:06:18.598Z,4.53
2022-08-29T05:08:59.460Z,4.78
2022-08-29T05:11:29.485Z,4.25
2022-08-29T05:13:57.571Z,4.20
2022-08-29T05:16:24.693Z,4.15
2022-08-29T05:18:52.699Z,4.25
2022-08-29T05:21:28.453Z,4.50
2022-08-29T05:23:56.905Z,4.45
2022-08-29T05:26:25.028Z,4.47
2022-08-29T05:28:52.314Z,4.13
2022-08-29T05:31:21.037Z,4.57
2022-08-29T05:33:48.831Z,4.60
2022-08-29T05:36:16.128Z,5.15
2022-08-29T05:38:43.309Z,5.93
2022-08-29T05:41:11.495Z,4.82
2022-08-29T05:43:38.644Z,5.10
2022-08-29T05:46:08.040Z,5.18
2022-08-29T05:48:35.949Z,6.18
2022-08-29T05:51:03.000Z,6.05
2022-08-29T05:53:30.219Z,6.00
2022-08-29T05:55:57.505Z,6.10
2022-08-29T05:58:24.560Z,6.20
2022-08-29T06:00:51.674Z,7.63
2022-08-29T06:03:18.934Z,7.82
2022-08-29T06:05:51.950Z,7.78
2022-08-29T06:08:20.855Z,7.70
2022-08-29T06:10:48.234Z,6.90
2022-08-29T06:13:15.749Z,7.38
2022-08-29T06:15:46.057Z,7.65
2022-08-29T06:18:14.099Z,8.05
2022-08-29T06:20:41.524Z,7.45
2022-08-29T06:23:08.577Z,7.15
2022-08-29T06:25:39.462Z,6.38
2022-08-29T06:28:08.260Z,5.90
2022-08-29T06:30:35.354Z,5.45
2022-08-29T06:33:03.172Z,5.20
2022-08-29T06:35:31.214Z,5.43
2022-08-29T06:37:58.565Z,5.00
2022-08-29T06:43:09.364Z,5.03
2022-08-29T06:45:42.850Z,4.82
2022-08-29T06:48:11.615Z,4.45
2022-08-29T06:50:45.556Z,4.72
2022-08-29T06:53:26.853Z,4.85
2022-08-29T06:55:55.904Z,4.68
2022-08-29T06:58:23.189Z,4.45
2022-08-29T07:00:50.912Z,4.43
2022-08-29T07:03:23.157Z,4.55
2022-08-29T07:05:54.380Z,5.10
2022-08-29T07:08:23.995Z,4.80
2022-08-29T07:10:51.984Z,5.25
2022-08-29T07:13:23.649Z,4.90
2022-08-29T07:15:50.823Z,4.60
2022-08-29T07:18:21.489Z,4.90
2022-08-29T07:20:52.449Z,4.93
2022-08-29T07:23:20.745Z,5.07
2022-08-29T07:25:50.950Z,5.03
2022-08-29T07:28:30.671Z,5.32
2022-08-29T07:31:01.328Z,5.25
2022-08-29T07:33:28.624Z,5.07
2022-08-29T07:36:01.195Z,5.03
2022-08-29T07:38:31.484Z,4.00
2022-08-29T07:41:08.799Z,4.60
2022-08-29T07:43:37.009Z,4.55
2022-08-29T07:46:13.997Z,4.10
2022-08-29T07:48:43.094Z,4.03
2022-08-29T07:51:13.034Z,4.10
2022-08-29T07:53:42.154Z,4.28
2022-08-29T07:56:19.608Z,3.90
2022-08-29T07:58:47.669Z,3.97
2022-08-29T08:01:21.620Z,3.40
2022-08-29T08:03:51.018Z,3.47
2022-08-29T08:06:23.189Z,3.15
2022-08-29T08:08:50.894Z,3.10
2022-08-29T08:11:20.152Z,3.05
2022-08-29T08:13:48.131Z,2.72
2022-08-29T08:16:19.125Z,3.03
2022-08-29T08:18:48.224Z,3.10
2022-08-29T08:21:15.981Z,3.28
2022-08-29T08:23:43.856Z,3.20
2022-08-29T08:26:12.550Z,2.83
2022-08-29T08:28:42.059Z,3.25
2022-08-29T08:31:10.875Z,3.35
2022-08-29T08:33:39.486Z,2.80
2022-08-29T08:36:28.735Z,3.03
2022-08-29T08:38:57.377Z,3.10
2022-08-29T08:41:27.657Z,3.40
2022-08-29T08:44:06.254Z,3.60
2022-08-29T08:46:49.407Z,3.30
2022-08-29T08:49:19.534Z,3.45
2022-08-29T08:51:53.804Z,4.00
2022-08-29T08:54:25.755Z,3.83
2022-08-29T08:57:11.433Z,3.60
2022-08-29T08:59:46.913Z,3.47
2022-08-29T09:02:43.173Z,3.30
2022-08-29T09:05:37.248Z,3.38
2022-08-29T09:08:09.585Z,4.10
2022-08-29T09:10:43.346Z,3.88
2022-08-29T09:13:22.504Z,3.65
2022-08-29T09:15:55.999Z,3.47
2022-08-29T09:18:37.516Z,3.20
2022-08-29T09:21:46.522Z,3.20
2022-08-29T09:24:19.610Z,3.10
2022-08-29T09:26:46.869Z,3.78
2022-08-29T09:29:15.222Z,3.15
2022-08-29T09:31:42.628Z,3.60
2022-08-29T09:34:13.089Z,2.85
2022-08-29T09:36:47.645Z,2.90
2022-08-29T09:39:31.639Z,2.90
2022-08-29T09:42:23.259Z,2.90
2022-08-29T09:44:59.389Z,2.88
2022-08-29T09:47:29.349Z,2.60
2022-08-29T09:50:05.869Z,2.42
2022-08-29T09:52:33.871Z,2.80
2022-08-29T09:55:45.163Z,2.50
2022-08-29T09:58:21.664Z,2.80
2022-08-29T10:01:06.453Z,2.67
2022-08-29T10:03:43.747Z,3.05
2022-08-29T10:06:24.334Z,2.65
2022-08-29T10:08:59.213Z,2.55
2022-08-29T10:11:33.290Z,2.63
2022-08-29T10:14:05.181Z,2.65
2022-08-29T10:16:40.028Z,2.75
2022-08-29T10:19:26.224Z,3.00
2022-08-29T10:22:16.308Z,2.85
2022-08-29T10:24:58.483Z,2.90
2022-08-29T10:27:46.569Z,3.40
2022-08-29T10:30:51.844Z,3.17
2022-08-29T10:33:47.438Z,3.60
2022-08-29T10:36:20.649Z,3.30
2022-08-29T10:38:55.790Z,3.60
2022-08-29T10:41:38.074Z,3.67
2022-08-29T10:44:23.279Z,3.60
2022-08-29T10:47:30.719Z,3.58
2022-08-29T10:50:43.584Z,3.10
2022-08-29T10:53:19.932Z,3.20
2022-08-29T10:56:01.055Z,2.95
2022-08-29T10:58:48.360Z,2.72
2022-08-29T11:01:24.206Z,3.13
2022-08-29T11:04:17.949Z,3.33
2022-08-29T11:07:07.596Z,3.40
2022-08-29T11:09:45.715Z,3.60
2022-08-29T11:12:26.858Z,4.10
2022-08-29T11:15:04.175Z,4.38
2022-08-29T11:17:37.329Z,3.10
2022-08-29T11:20:18.489Z,3.17
2022-08-29T11:23:16.530Z,3.20
2022-08-29T11:25:44.943Z,3.10
2022-08-29T11:28:25.460Z,3.20
2022-08-29T11:31:19.825Z,3.08
2022-08-29T11:34:03.411Z,2.97
2022-08-29T11:36:54.852Z,3.03
2022-08-29T11:39:49.027Z,3.20
2022-08-29T11:45:10.929Z,2.78
2022-08-29T11:47:58.401Z,2.90
2022-08-29T11:50:37.345Z,2.83
2022-08-29T11:53:16.793Z,3.20
2022-08-29T11:56:05.154Z,3.10
2022-08-29T11:58:33.024Z,3.38
2022-08-29T12:01:00.280Z,3.15
2022-08-29T12:03:34.088Z,3.33
2022-08-29T12:06:52.635Z,3.22
2022-08-29T12:09:28.773Z,3.20
2022-08-29T12:12:04.801Z,3.70
2022-08-29T12:14:39.713Z,3.75
2022-08-29T12:17:10.468Z,4.10
2022-08-29T12:19:52.415Z,4.00
2022-08-29T12:25:45.816Z,4.10
2022-08-29T12:28:21.873Z,4.03
2022-08-29T12:30:50.650Z,4.10
2022-08-29T12:33:55.229Z,3.97
2022-08-29T12:36:26.365Z,4.07
2022-08-29T12:39:34.438Z,4.13
2022-08-29T12:42:13.781Z,3.92
2022-08-29T12:44:51.020Z,4.30
2022-08-29T12:47:27.909Z,4.50
2022-08-29T12:49:59.874Z,4.22
2022-08-29T12:52:33.493Z,4.63
2022-08-29T12:55:28.974Z,4.82
2022-08-29T12:57:57.672Z,4.70
2022-08-29T13:00:31.962Z,4.28
2022-08-29T13:03:18.313Z,4.70
2022-08-29T13:05:46.430Z,4.20
2022-08-29T13:08:28.664Z,4.70
2022-08-29T13:11:01.932Z,5.00
2022-08-29T13:13:30.068Z,4.68
2022-08-29T13:16:02.999Z,4.82
2022-08-29T13:18:33.778Z,3.97
2022-08-29T13:21:19.745Z,4.03
2022-08-29T13:23:56.483Z,3.97
2022-08-29T13:26:27.839Z,3.22
2022-08-29T13:28:58.190Z,3.67
2022-08-29T13:31:27.306Z,4.40
2022-08-29T13:33:54.624Z,3.95
2022-08-29T13:36:28.169Z,2.95
2022-08-29T13:42:36.324Z,2.50
2022-08-29T13:45:10.570Z,2.90
2022-08-29T13:47:49.849Z,2.63
2022-08-29T13:50:16.988Z,2.85
2022-08-29T13:52:44.138Z,2.78
2022-08-29T13:55:11.995Z,2.38
2022-08-29T13:57:41.693Z,3.00
2022-08-29T14:00:12.408Z,3.20
2022-08-29T14:02:45.137Z,2.88
2022-08-29T14:05:14.106Z,2.90
2022-08-29T14:07:43.316Z,3.03
2022-08-29T14:10:12.337Z,2.90
2022-08-29T14:12:39.719Z,2.47
2022-08-29T14:15:10.079Z,2.72
2022-08-29T14:17:41.032Z,2.17
2022-08-29T14:20:12.772Z,2.00
2022-08-29T14:22:40.300Z,2.45
2022-08-29T14:25:10.195Z,2.22
2022-08-29T14:27:38.073Z,2.33
2022-08-29T14:30:08.224Z,4.18
2022-08-29T14:32:35.420Z,2.20
2022-08-29T14:35:04.309Z,2.20
2022-08-29T14:37:33.149Z,2.58
2022-08-29T14:40:00.593Z,2.38
2022-08-29T14:42:27.733Z,2.30
2022-08-29T14:44:54.870Z,2.30
2022-08-29T14:47:22.027Z,2.53
2022-08-29T14:49:49.180Z,2.47
2022-08-29T14:52:16.254Z,2.30
2022-08-29T14:54:43.931Z,2.38
2022-08-29T14:57:12.373Z,2.50
2022-08-29T14:59:40.580Z,2.58
2022-08-29T15:05:55.621Z,2.30
2022-08-29T15:08:23.040Z,2.58
2022-08-29T15:10:50.258Z,2.67
2022-08-29T15:13:17.472Z,2.63
2022-08-29T15:15:44.909Z,2.75
2022-08-29T15:18:30.580Z,2.60
2022-08-29T15:21:20.440Z,2.55
2022-08-29T15:23:49.176Z,2.55
2022-08-29T15:26:16.764Z,2.50
2022-08-29T15:28:43.935Z,2.75
2022-08-29T15:31:11.085Z,2.80
2022-08-29T15:33:40.071Z,2.72
2022-08-29T15:36:07.909Z,2.80
2022-08-29T15:38:35.035Z,2.90
2022-08-29T15:41:02.416Z,2.70
2022-08-29T15:43:29.530Z,2.63
2022-08-29T15:45:59.198Z,3.05
2022-08-29T15:48:27.234Z,2.80
2022-08-29T15:50:54.350Z,2.50
2022-08-29T15:53:21.407Z,2.88
2022-08-29T15:55:48.511Z,2.70
2022-08-29T15:58:15.765Z,2.88
2022-08-29T16:00:43.053Z,2.63
2022-08-29T16:03:10.573Z,3.10
2022-08-29T16:05:39.455Z,2.72
2022-08-29T16:08:06.850Z,3.00
2022-08-29T16:10:37.550Z,2.60
2022-08-29T16:13:05.454Z,2.70
2022-08-29T16:15:33.965Z,3.00
2022-08-29T16:18:02.801Z,2.60
2022-08-29T16:20:31.163Z,2.53
2022-08-29T16:22:58.690Z,2.90
2022-08-29T16:25:31.179Z,2.72
2022-08-29T16:27:59.625Z,2.80
2022-08-29T16:30:27.245Z,2.60
2022-08-29T16:32:55.447Z,2.60
2022-08-29T16:35:23.370Z,2.75
2022-08-29T16:38:02.726Z,2.70
2022-08-29T16:40:31.584Z,2.50
2022-08-29T16:42:58.791Z,2.58
2022-08-29T16:45:25.960Z,2.55
2022-08-29T16:47:57.275Z,2.92
2022-08-29T16:50:25.611Z,2.72
2022-08-29T16:52:52.791Z,2.88
2022-08-29T16:55:20.226Z,2.65
2022-08-29T16:58:07.270Z,2.80
2022-08-29T17:00:35.045Z,2.50
2022-08-29T17:03:02.254Z,2.50
2022-08-29T17:05:29.396Z,3.20
2022-08-29T17:07:56.486Z,2.85
2022-08-29T17:10:23.516Z,2.80
2022-08-29T17:12:50.506Z,2.40
2022-08-29T17:15:17.512Z,2.42
2022-08-29T17:17:45.269Z,2.55
2022-08-29T17:20:13.306Z,2.60
2022-08-29T17:22:44.355Z,2.28
2022-08-29T17:25:11.706Z,2.88
2022-08-29T17:27:42.854Z,2.75
2022-08-29T17:30:19.012Z,2.80
2022-08-29T17:32:49.316Z,2.33
2022-08-29T17:35:16.436Z,2.42
2022-08-29T17:37:44.979Z,2.60
2022-08-29T17:40:14.045Z,2.92
2022-08-29T17:42:44.969Z,2.70
2022-08-29T17:45:14.253Z,2.85
2022-08-29T17:47:41.961Z,2.90
2022-08-29T17:50:11.887Z,3.05
2022-08-29T17:52:41.370Z,2.67
2022-08-29T17:55:09.300Z,2.70
2022-08-29T17:57:37.611Z,2.80
2022-08-29T18:00:08.055Z,2.92
2022-08-29T18:02:35.352Z,2.78
2022-08-29T18:05:03.830Z,2.45
2022-08-29T18:07:31.255Z,2.75
2022-08-29T18:09:59.453Z,2.75
2022-08-29T18:12:26.756Z,2.40
2022-08-29T18:14:55.354Z,2.92
2022-08-29T18:17:22.557Z,2.78
2022-08-29T18:19:52.596Z,3.03
2022-08-29T18:22:20.395Z,2.90
2022-08-29T18:24:48.325Z,2.67
2022-08-29T18:27:21.822Z,2.85
2022-08-29T18:29:49.009Z,2.80
2022-08-29T18:32:16.154Z,3.03
2022-08-29T18:34:48.451Z,3.22
2022-08-29T18:37:17.400Z,2.92
2022-08-29T18:39:48.464Z,3.28
2022-08-29T18:42:36.738Z,3.28
2022-08-29T18:45:06.027Z,3.30
2022-08-29T18:47:34.281Z,3.15
2022-08-29T18:50:20.601Z,3.53
2022-08-29T18:52:55.448Z,3.67
2022-08-29T18:55:25.558Z,3.75
2022-08-29T18:57:55.151Z,3.42
2022-08-29T19:00:26.126Z,3.50
2022-08-29T19:02:58.915Z,3.83
2022-08-29T19:08:13.651Z,3.55
2022-08-29T19:10:47.006Z,3.38
2022-08-29T19:13:18.401Z,3.65
2022-08-29T19:15:49.201Z,3.92
2022-08-29T19:18:18.676Z,3.33
2022-08-29T19:21:05.611Z,3.55
2022-08-29T19:23:42.658Z,3.33
2022-08-29T19:26:19.046Z,3.15
2022-08-29T19:28:49.477Z,3.40
2022-08-29T19:31:18.895Z,3.85
2022-08-29T19:33:47.706Z,3.22
2022-08-29T19:36:19.607Z,3.00
2022-08-29T19:38:47.316Z,3.35
2022-08-29T19:41:16.189Z,3.50
2022-08-29T19:43:44.953Z,3.13
2022-08-29T19:46:22.399Z,3.05
2022-08-29T19:48:52.591Z,3.17
2022-08-29T19:51:25.075Z,3.35
2022-08-29T19:53:57.375Z,3.45
2022-08-29T19:56:26.575Z,3.60
2022-08-29T19:59:01.252Z,3.40
2022-08-29T20:01:31.361Z,3.88
2022-08-29T20:03:58.606Z,3.90
2022-08-29T20:06:27.196Z,3.47
2022-08-29T20:08:54.867Z,3.67
2022-08-29T20:11:28.477Z,3.95
2022-08-29T20:13:57.741Z,4.20
2022-08-29T20:16:35.131Z,3.70
2022-08-29T20:19:05.236Z,3.50
2022-08-29T20:21:34.801Z,3.15
2022-08-29T20:24:05.001Z,3.08
2022-08-29T20:26:35.151Z,3.28
2022-08-29T20:29:06.835Z,3.50
2022-08-29T20:31:43.743Z,3.28
2022-08-29T20:34:12.111Z,2.95
2022-08-29T20:36:58.355Z,3.58
2022-08-29T20:39:26.098Z,3.60
2022-08-29T20:41:56.796Z,3.63
2022-08-29T20:47:10.330Z,3.88
2022-08-29T20:49:44.163Z,3.80
2022-08-29T20:52:27.746Z,4.10
2022-08-29T20:54:58.631Z,3.70
2022-08-29T20:57:27.731Z,3.72
2022-08-29T20:59:58.468Z,3.50
2022-08-29T21:02:51.612Z,4.00
2022-08-29T21:08:27.126Z,4.15
2022-08-29T21:10:57.792Z,4.82
2022-08-29T21:13:34.435Z,3.90
2022-08-29T21:16:06.351Z,4.22
2022-08-29T21:18:35.881Z,3.75
2022-08-29T21:21:07.870Z,4.32
2022-08-29T21:23:44.726Z,4.13
2022-08-29T21:26:22.849Z,3.90
2022-08-29T21:28:53.885Z,4.45
2022-08-29T21:31:24.763Z,3.85
2022-08-29T21:33:53.446Z,3.67
2022-08-29T21:36:29.995Z,4.28
2022-08-29T21:39:03.111Z,4.10
2022-08-29T21:41:37.666Z,4.13
2022-08-29T21:44:06.780Z,3.88
2022-08-29T21:46:44.874Z,3.63
2022-08-29T21:49:20.831Z,3.90
2022-08-29T21:51:51.639Z,3.67
2022-08-29T21:54:28.286Z,4.05
2022-08-29T21:56:58.071Z,3.90
2022-08-29T21:59:28.246Z,3.80
2022-08-29T22:01:56.873Z,3.60
2022-08-29T22:04:28.137Z,3.60
2022-08-29T22:07:03.351Z,3.80
2022-08-29T22:09:32.010Z,4.30
2022-08-29T22:12:00.666Z,4.10
2022-08-29T22:14:49.586Z,3.75
2022-08-29T22:17:17.991Z,3.70
2022-08-29T22:19:48.232Z,4.28
2022-08-29T22:22:18.026Z,4.60
2022-08-29T22:24:47.769Z,4.28
2022-08-29T22:27:16.106Z,4.38
2022-08-29T22:29:45.460Z,4.28
2022-08-29T22:32:17.414Z,4.03
2022-08-29T22:34:47.686Z,4.75
2022-08-29T22:37:17.491Z,4.57
2022-08-29T22:39:47.811Z,4.18
2022-08-29T22:42:22.199Z,4.45
2022-08-29T22:45:03.967Z,4.45
2022-08-29T22:47:41.952Z,4.68
2022-08-29T22:50:23.013Z,4.90
2022-08-29T22:52:54.894Z,4.50
2022-08-29T22:58:00.544Z,4.30
2022-08-29T23:00:31.606Z,4.20
2022-08-29T23:02:58.988Z,4.20
2022-08-29T23:08:16.561Z,4.22
2022-08-29T23:10:49.018Z,3.88
2022-08-29T23:13:18.420Z,3.75
2022-08-29T23:15:57.004Z,3.95
2022-08-29T23:18:25.691Z,3.78
2022-08-29T23:20:54.030Z,3.65
2022-08-29T23:23:22.336Z,3.80
2022-08-29T23:25:53.520Z,3.70
2022-08-29T23:28:21.919Z,3.60
2022-08-29T23:30:51.741Z,3.90
2022-08-29T23:33:28.769Z,3.50
2022-08-29T23:35:58.769Z,3.78
2022-08-29T23:38:28.921Z,3.60
2022-08-29T23:40:58.730Z,3.55
2022-08-29T23:43:37.032Z,3.83
2022-08-29T23:46:11.769Z,3.83
2022-08-29T23:48:40.430Z,4.00
2022-08-29T23:51:11.425Z,3.80
2022-08-29T23:53:40.011Z,3.45
2022-08-29T23:56:22.409Z,3.78
2022-08-29T23:58:51.110Z,3.67
